LBWN - VARNA

Compiled: 11:37:35 on 21/04/2018

Latest METAR/SPECI Reports

METAR LBWN 211130Z 33008KT 260V030 CAVOK 21/04 Q1020 BECMG 11012KT=

Previous reports

METAR LBWN 211100Z 04007KT 330V140 CAVOK 20/03 Q1020 BECMG 11012KT=
METAR LBWN 211030Z VRB10KT CAVOK 20/03 Q1020 NOSIG=
METAR LBWN 211030Z VRB10KT CAVOK 20/03 Q1020 NOSIG=
METAR LBWN 211000Z 34013KT 9999 FEW045 20/03 Q1020 NOSIG=

Latest TAF report

TAF LBWN 211100Z 2112/2212 09012KT CAVOK BECMG 2118/2120 27010KT=

Valid WARNINGS

No valid warnings for LBWN